sensor_id;sensor_type;location;lat;lon;timestamp;P1;durP1;ratioP1;P2;durP2;ratioP2
25758;SDS011;13604;52.496;13.456;2022-12-07T00:00:28;29.00;;;11.60;;
25758;SDS011;13604;52.496;13.456;2022-12-07T00:02:53;25.02;;;12.43;;
25758;SDS011;13604;52.496;13.456;2022-12-07T00:05:18;25.77;;;11.50;;
25758;SDS011;13604;52.496;13.456;2022-12-07T00:07:44;28.13;;;11.20;;
25758;SDS011;13604;52.496;13.456;2022-12-07T00:10:09;26.35;;;12.23;;
25758;SDS011;13604;52.496;13.456;2022-12-07T00:12:34;29.73;;;11.77;;
25758;SDS011;13604;52.496;13.456;2022-12-07T00:14:59;25.42;;;11.70;;
25758;SDS011;13604;52.496;13.456;2022-12-07T00:17:25;25.75;;;12.18;;
25758;SDS011;13604;52.496;13.456;2022-12-07T00:19:50;25.30;;;11.82;;
25758;SDS011;13604;52.496;13.456;2022-12-07T00:22:15;27.98;;;11.55;;
25758;SDS011;13604;52.496;13.456;2022-12-07T00:24:41;27.08;;;12.07;;
25758;SDS011;13604;52.496;13.456;2022-12-07T00:27:06;26.55;;;12.25;;
25758;SDS011;13604;52.496;13.456;2022-12-07T00:29:31;23.88;;;11.82;;
25758;SDS011;13604;52.496;13.456;2022-12-07T00:31:57;19.92;;;10.40;;
25758;SDS011;13604;52.496;13.456;2022-12-07T00:34:22;20.95;;;11.05;;
25758;SDS011;13604;52.496;13.456;2022-12-07T00:36:48;23.95;;;11.27;;
25758;SDS011;13604;52.496;13.456;2022-12-07T00:39:14;21.23;;;10.50;;
25758;SDS011;13604;52.496;13.456;2022-12-07T00:41:39;20.92;;;11.02;;
25758;SDS011;13604;52.496;13.456;2022-12-07T00:44:04;20.50;;;11.13;;
25758;SDS011;13604;52.496;13.456;2022-12-07T00:46:30;20.80;;;10.93;;
25758;SDS011;13604;52.496;13.456;2022-12-07T00:48:55;20.85;;;10.85;;
25758;SDS011;13604;52.496;13.456;2022-12-07T00:51:21;21.08;;;9.68;;
25758;SDS011;13604;52.496;13.456;2022-12-07T00:53:48;17.95;;;9.80;;
25758;SDS011;13604;52.496;13.456;2022-12-07T00:56:15;22.83;;;10.65;;
25758;SDS011;13604;52.496;13.456;2022-12-07T00:58:43;20.38;;;11.18;;
25758;SDS011;13604;52.496;13.456;2022-12-07T01:01:09;20.42;;;10.52;;
25758;SDS011;13604;52.496;13.456;2022-12-07T01:03:35;22.25;;;11.32;;
25758;SDS011;13604;52.496;13.456;2022-12-07T01:06:01;18.33;;;9.93;;
25758;SDS011;13604;52.496;13.456;2022-12-07T01:08:26;19.30;;;10.02;;
25758;SDS011;13604;52.496;13.456;2022-12-07T01:10:59;20.23;;;10.38;;
25758;SDS011;13604;52.496;13.456;2022-12-07T01:13:25;18.95;;;10.73;;
25758;SDS011;13604;52.496;13.456;2022-12-07T01:15:50;19.05;;;10.00;;
25758;SDS011;13604;52.496;13.456;2022-12-07T01:18:15;19.35;;;9.40;;
25758;SDS011;13604;52.496;13.456;2022-12-07T01:20:41;18.52;;;9.82;;
25758;SDS011;13604;52.496;13.456;2022-12-07T01:23:06;18.15;;;9.43;;
25758;SDS011;13604;52.496;13.456;2022-12-07T01:25:31;17.92;;;9.48;;
25758;SDS011;13604;52.496;13.456;2022-12-07T01:27:57;16.20;;;8.88;;
25758;SDS011;13604;52.496;13.456;2022-12-07T01:30:22;16.92;;;8.70;;
25758;SDS011;13604;52.496;13.456;2022-12-07T01:32:47;16.92;;;8.90;;
25758;SDS011;13604;52.496;13.456;2022-12-07T01:35:13;16.55;;;8.98;;
25758;SDS011;13604;52.496;13.456;2022-12-07T01:37:39;16.48;;;8.77;;
25758;SDS011;13604;52.496;13.456;2022-12-07T01:40:05;17.52;;;9.48;;
25758;SDS011;13604;52.496;13.456;2022-12-07T01:42:32;17.95;;;9.57;;
25758;SDS011;13604;52.496;13.456;2022-12-07T01:48:00;13.98;;;8.40;;
25758;SDS011;13604;52.496;13.456;2022-12-07T01:50:26;13.27;;;7.82;;
25758;SDS011;13604;52.496;13.456;2022-12-07T01:52:56;14.80;;;7.60;;
25758;SDS011;13604;52.496;13.456;2022-12-07T01:55:24;14.27;;;7.78;;
25758;SDS011;13604;52.496;13.456;2022-12-07T01:57:50;17.25;;;7.80;;
25758;SDS011;13604;52.496;13.456;2022-12-07T02:00:18;17.67;;;8.10;;
25758;SDS011;13604;52.496;13.456;2022-12-07T02:03:28;12.73;;;7.15;;
25758;SDS011;13604;52.496;13.456;2022-12-07T02:06:02;14.70;;;7.68;;
25758;SDS011;13604;52.496;13.456;2022-12-07T02:08:29;12.43;;;7.13;;
25758;SDS011;13604;52.496;13.456;2022-12-07T02:10:54;12.38;;;7.30;;
25758;SDS011;13604;52.496;13.456;2022-12-07T02:13:21;12.57;;;7.45;;
25758;SDS011;13604;52.496;13.456;2022-12-07T02:19:04;13.75;;;8.07;;
25758;SDS011;13604;52.496;13.456;2022-12-07T02:30:31;7.20;;;4.55;;
25758;SDS011;13604;52.496;13.456;2022-12-07T02:33:00;9.43;;;5.95;;
25758;SDS011;13604;52.496;13.456;2022-12-07T02:35:35;12.00;;;6.82;;
25758;SDS011;13604;52.496;13.456;2022-12-07T02:40:51;15.13;;;7.20;;
25758;SDS011;13604;52.496;13.456;2022-12-07T02:43:24;11.32;;;6.55;;
25758;SDS011;13604;52.496;13.456;2022-12-07T02:45:53;15.27;;;7.65;;
25758;SDS011;13604;52.496;13.456;2022-12-07T02:48:23;13.50;;;7.25;;
25758;SDS011;13604;52.496;13.456;2022-12-07T02:50:51;14.00;;;7.07;;
25758;SDS011;13604;52.496;13.456;2022-12-07T02:55:55;14.55;;;7.82;;
25758;SDS011;13604;52.496;13.456;2022-12-07T03:01:15;15.15;;;7.60;;
25758;SDS011;13604;52.496;13.456;2022-12-07T03:04:06;14.07;;;7.60;;
25758;SDS011;13604;52.496;13.456;2022-12-07T03:06:36;14.27;;;7.57;;
25758;SDS011;13604;52.496;13.456;2022-12-07T03:09:17;13.75;;;7.57;;
25758;SDS011;13604;52.496;13.456;2022-12-07T03:11:48;18.10;;;8.63;;
25758;SDS011;13604;52.496;13.456;2022-12-07T03:14:24;16.30;;;8.73;;
25758;SDS011;13604;52.496;13.456;2022-12-07T03:16:59;17.67;;;8.60;;
25758;SDS011;13604;52.496;13.456;2022-12-07T03:19:27;17.48;;;9.43;;
25758;SDS011;13604;52.496;13.456;2022-12-07T03:22:02;14.68;;;8.60;;
25758;SDS011;13604;52.496;13.456;2022-12-07T03:24:35;13.52;;;7.68;;
25758;SDS011;13604;52.496;13.456;2022-12-07T03:27:06;18.23;;;9.13;;
25758;SDS011;13604;52.496;13.456;2022-12-07T03:29:37;16.02;;;8.80;;
25758;SDS011;13604;52.496;13.456;2022-12-07T03:32:08;17.35;;;9.13;;
25758;SDS011;13604;52.496;13.456;2022-12-07T03:34:44;17.92;;;9.43;;
25758;SDS011;13604;52.496;13.456;2022-12-07T03:37:15;18.90;;;9.60;;
25758;SDS011;13604;52.496;13.456;2022-12-07T03:42:21;15.45;;;8.38;;
25758;SDS011;13604;52.496;13.456;2022-12-07T03:44:47;16.90;;;8.52;;
25758;SDS011;13604;52.496;13.456;2022-12-07T03:47:57;15.65;;;9.70;;
25758;SDS011;13604;52.496;13.456;2022-12-07T03:50:59;18.88;;;10.40;;
25758;SDS011;13604;52.496;13.456;2022-12-07T03:53:32;15.60;;;8.85;;
25758;SDS011;13604;52.496;13.456;2022-12-07T03:56:08;18.60;;;9.68;;
25758;SDS011;13604;52.496;13.456;2022-12-07T03:58:37;19.73;;;9.85;;
25758;SDS011;13604;52.496;13.456;2022-12-07T04:01:03;19.88;;;10.20;;
25758;SDS011;13604;52.496;13.456;2022-12-07T04:03:28;24.80;;;10.38;;
25758;SDS011;13604;52.496;13.456;2022-12-07T04:05:54;23.95;;;11.25;;
25758;SDS011;13604;52.496;13.456;2022-12-07T04:08:20;20.58;;;10.98;;
25758;SDS011;13604;52.496;13.456;2022-12-07T04:10:45;22.70;;;10.50;;
25758;SDS011;13604;52.496;13.456;2022-12-07T04:13:10;25.35;;;12.38;;
25758;SDS011;13604;52.496;13.456;2022-12-07T04:15:36;27.30;;;12.05;;
25758;SDS011;13604;52.496;13.456;2022-12-07T04:18:01;29.98;;;13.27;;
25758;SDS011;13604;52.496;13.456;2022-12-07T04:20:26;27.40;;;12.85;;
25758;SDS011;13604;52.496;13.456;2022-12-07T04:22:52;28.92;;;12.93;;
25758;SDS011;13604;52.496;13.456;2022-12-07T04:25:17;27.92;;;13.45;;
25758;SDS011;13604;52.496;13.456;2022-12-07T04:27:42;29.13;;;13.45;;
25758;SDS011;13604;52.496;13.456;2022-12-07T04:30:08;31.00;;;13.48;;
25758;SDS011;13604;52.496;13.456;2022-12-07T04:32:33;30.27;;;13.63;;
25758;SDS011;13604;52.496;13.456;2022-12-07T04:34:59;35.53;;;15.30;;
25758;SDS011;13604;52.496;13.456;2022-12-07T04:37:24;29.83;;;14.02;;
25758;SDS011;13604;52.496;13.456;2022-12-07T04:39:49;32.85;;;14.93;;
25758;SDS011;13604;52.496;13.456;2022-12-07T04:42:15;33.90;;;16.35;;
25758;SDS011;13604;52.496;13.456;2022-12-07T04:44:40;34.58;;;15.40;;
25758;SDS011;13604;52.496;13.456;2022-12-07T04:47:06;37.35;;;16.52;;
25758;SDS011;13604;52.496;13.456;2022-12-07T04:49:31;42.20;;;17.88;;
25758;SDS011;13604;52.496;13.456;2022-12-07T04:51:56;44.03;;;17.83;;
25758;SDS011;13604;52.496;13.456;2022-12-07T04:54:22;41.75;;;16.73;;
25758;SDS011;13604;52.496;13.456;2022-12-07T04:56:47;48.50;;;17.95;;
25758;SDS011;13604;52.496;13.456;2022-12-07T04:59:13;48.35;;;19.85;;
25758;SDS011;13604;52.496;13.456;2022-12-07T05:01:39;47.95;;;19.58;;
25758;SDS011;13604;52.496;13.456;2022-12-07T05:04:05;50.72;;;19.55;;
25758;SDS011;13604;52.496;13.456;2022-12-07T05:06:31;47.92;;;19.23;;
25758;SDS011;13604;52.496;13.456;2022-12-07T05:08:56;54.20;;;20.80;;
25758;SDS011;13604;52.496;13.456;2022-12-07T05:11:21;54.10;;;20.50;;
25758;SDS011;13604;52.496;13.456;2022-12-07T05:16:38;53.63;;;20.83;;
25758;SDS011;13604;52.496;13.456;2022-12-07T05:19:04;53.35;;;20.77;;
25758;SDS011;13604;52.496;13.456;2022-12-07T05:21:30;56.35;;;21.35;;
25758;SDS011;13604;52.496;13.456;2022-12-07T05:23:55;46.45;;;19.20;;
25758;SDS011;13604;52.496;13.456;2022-12-07T05:26:20;55.63;;;21.60;;
25758;SDS011;13604;52.496;13.456;2022-12-07T05:28:49;57.15;;;20.55;;
25758;SDS011;13604;52.496;13.456;2022-12-07T05:31:15;58.88;;;22.05;;
25758;SDS011;13604;52.496;13.456;2022-12-07T05:33:41;56.42;;;22.35;;
25758;SDS011;13604;52.496;13.456;2022-12-07T05:36:06;58.92;;;23.00;;
25758;SDS011;13604;52.496;13.456;2022-12-07T05:38:32;59.83;;;22.45;;
25758;SDS011;13604;52.496;13.456;2022-12-07T05:41:04;64.95;;;23.23;;
25758;SDS011;13604;52.496;13.456;2022-12-07T05:43:31;54.72;;;21.38;;
25758;SDS011;13604;52.496;13.456;2022-12-07T05:45:57;57.33;;;22.67;;
25758;SDS011;13604;52.496;13.456;2022-12-07T05:48:23;64.50;;;23.02;;
25758;SDS011;13604;52.496;13.456;2022-12-07T05:50:48;58.58;;;23.92;;
25758;SDS011;13604;52.496;13.456;2022-12-07T05:53:14;63.28;;;23.42;;
25758;SDS011;13604;52.496;13.456;2022-12-07T05:55:39;64.13;;;23.25;;
25758;SDS011;13604;52.496;13.456;2022-12-07T05:58:05;54.63;;;21.52;;
25758;SDS011;13604;52.496;13.456;2022-12-07T06:00:49;74.53;;;25.10;;
25758;SDS011;13604;52.496;13.456;2022-12-07T06:03:14;54.05;;;22.25;;
25758;SDS011;13604;52.496;13.456;2022-12-07T06:05:39;66.82;;;25.90;;
25758;SDS011;13604;52.496;13.456;2022-12-07T06:08:05;70.65;;;25.83;;
25758;SDS011;13604;52.496;13.456;2022-12-07T06:10:30;64.70;;;23.38;;
25758;SDS011;13604;52.496;13.456;2022-12-07T06:12:56;64.60;;;25.20;;
25758;SDS011;13604;52.496;13.456;2022-12-07T06:15:21;77.40;;;26.48;;
25758;SDS011;13604;52.496;13.456;2022-12-07T06:17:48;73.97;;;26.27;;
25758;SDS011;13604;52.496;13.456;2022-12-07T06:20:13;73.00;;;25.95;;
25758;SDS011;13604;52.496;13.456;2022-12-07T06:22:39;71.13;;;27.20;;
25758;SDS011;13604;52.496;13.456;2022-12-07T06:25:04;74.90;;;26.77;;
25758;SDS011;13604;52.496;13.456;2022-12-07T06:27:30;65.50;;;26.10;;
25758;SDS011;13604;52.496;13.456;2022-12-07T06:29:56;70.13;;;25.17;;
25758;SDS011;13604;52.496;13.456;2022-12-07T06:32:21;71.55;;;26.42;;
25758;SDS011;13604;52.496;13.456;2022-12-07T06:34:47;77.88;;;27.65;;
25758;SDS011;13604;52.496;13.456;2022-12-07T06:37:12;69.22;;;25.30;;
25758;SDS011;13604;52.496;13.456;2022-12-07T06:39:37;68.25;;;25.42;;
25758;SDS011;13604;52.496;13.456;2022-12-07T06:42:03;65.53;;;23.63;;
25758;SDS011;13604;52.496;13.456;2022-12-07T06:44:29;63.83;;;23.77;;
25758;SDS011;13604;52.496;13.456;2022-12-07T06:46:54;61.20;;;23.65;;
25758;SDS011;13604;52.496;13.456;2022-12-07T06:49:20;61.53;;;23.63;;
25758;SDS011;13604;52.496;13.456;2022-12-07T06:51:45;68.68;;;23.88;;
25758;SDS011;13604;52.496;13.456;2022-12-07T06:54:11;67.97;;;25.20;;
25758;SDS011;13604;52.496;13.456;2022-12-07T06:56:38;64.88;;;23.20;;
25758;SDS011;13604;52.496;13.456;2022-12-07T06:59:04;70.80;;;25.15;;
25758;SDS011;13604;52.496;13.456;2022-12-07T07:01:31;70.82;;;24.98;;
25758;SDS011;13604;52.496;13.456;2022-12-07T07:03:57;75.60;;;25.45;;
25758;SDS011;13604;52.496;13.456;2022-12-07T07:06:23;75.32;;;28.30;;
25758;SDS011;13604;52.496;13.456;2022-12-07T07:08:48;69.45;;;26.98;;
25758;SDS011;13604;52.496;13.456;2022-12-07T07:11:13;65.80;;;26.20;;
25758;SDS011;13604;52.496;13.456;2022-12-07T07:13:39;71.72;;;27.85;;
25758;SDS011;13604;52.496;13.456;2022-12-07T07:16:05;72.65;;;27.17;;
25758;SDS011;13604;52.496;13.456;2022-12-07T07:18:30;74.47;;;28.02;;
25758;SDS011;13604;52.496;13.456;2022-12-07T07:20:56;77.47;;;27.77;;
25758;SDS011;13604;52.496;13.456;2022-12-07T07:23:21;72.28;;;27.42;;
25758;SDS011;13604;52.496;13.456;2022-12-07T07:25:47;70.45;;;27.38;;
25758;SDS011;13604;52.496;13.456;2022-12-07T07:28:13;68.82;;;27.27;;
25758;SDS011;13604;52.496;13.456;2022-12-07T07:30:38;70.05;;;27.95;;
25758;SDS011;13604;52.496;13.456;2022-12-07T07:33:04;67.70;;;27.42;;
25758;SDS011;13604;52.496;13.456;2022-12-07T07:35:30;67.68;;;26.30;;
25758;SDS011;13604;52.496;13.456;2022-12-07T07:37:56;70.32;;;27.70;;
25758;SDS011;13604;52.496;13.456;2022-12-07T07:40:22;58.67;;;25.60;;
25758;SDS011;13604;52.496;13.456;2022-12-07T07:42:48;55.85;;;24.10;;
25758;SDS011;13604;52.496;13.456;2022-12-07T07:45:17;52.15;;;22.50;;
25758;SDS011;13604;52.496;13.456;2022-12-07T07:47:43;43.10;;;19.25;;
25758;SDS011;13604;52.496;13.456;2022-12-07T07:50:08;48.92;;;19.60;;
25758;SDS011;13604;52.496;13.456;2022-12-07T07:52:34;35.97;;;17.52;;
25758;SDS011;13604;52.496;13.456;2022-12-07T07:54:59;40.45;;;18.88;;
25758;SDS011;13604;52.496;13.456;2022-12-07T07:57:25;39.33;;;18.95;;
25758;SDS011;13604;52.496;13.456;2022-12-07T07:59:50;43.85;;;18.35;;
25758;SDS011;13604;52.496;13.456;2022-12-07T08:02:16;43.10;;;17.75;;
25758;SDS011;13604;52.496;13.456;2022-12-07T08:04:43;39.42;;;18.50;;
25758;SDS011;13604;52.496;13.456;2022-12-07T08:07:09;34.28;;;16.02;;
25758;SDS011;13604;52.496;13.456;2022-12-07T08:09:35;31.17;;;14.65;;
25758;SDS011;13604;52.496;13.456;2022-12-07T08:12:00;31.58;;;14.13;;
25758;SDS011;13604;52.496;13.456;2022-12-07T08:14:25;26.60;;;14.02;;
25758;SDS011;13604;52.496;13.456;2022-12-07T08:16:52;25.95;;;12.65;;
25758;SDS011;13604;52.496;13.456;2022-12-07T08:19:17;23.15;;;11.23;;
25758;SDS011;13604;52.496;13.456;2022-12-07T08:21:43;25.02;;;11.85;;
25758;SDS011;13604;52.496;13.456;2022-12-07T08:24:08;21.80;;;10.30;;
25758;SDS011;13604;52.496;13.456;2022-12-07T08:26:33;21.25;;;10.80;;
25758;SDS011;13604;52.496;13.456;2022-12-07T08:28:58;24.60;;;10.73;;
25758;SDS011;13604;52.496;13.456;2022-12-07T08:31:24;28.00;;;10.43;;
25758;SDS011;13604;52.496;13.456;2022-12-07T08:33:49;21.23;;;9.80;;
25758;SDS011;13604;52.496;13.456;2022-12-07T08:36:15;16.15;;;9.23;;
25758;SDS011;13604;52.496;13.456;2022-12-07T08:38:41;31.83;;;10.10;;
25758;SDS011;13604;52.496;13.456;2022-12-07T08:41:07;17.73;;;9.55;;
25758;SDS011;13604;52.496;13.456;2022-12-07T08:43:33;20.40;;;8.63;;
25758;SDS011;13604;52.496;13.456;2022-12-07T08:46:09;17.20;;;9.68;;
25758;SDS011;13604;52.496;13.456;2022-12-07T08:49:06;13.55;;;7.45;;
25758;SDS011;13604;52.496;13.456;2022-12-07T08:51:35;12.32;;;6.80;;
25758;SDS011;13604;52.496;13.456;2022-12-07T08:54:01;10.73;;;5.32;;
25758;SDS011;13604;52.496;13.456;2022-12-07T08:56:30;7.78;;;4.82;;
25758;SDS011;13604;52.496;13.456;2022-12-07T08:58:55;10.80;;;5.03;;
25758;SDS011;13604;52.496;13.456;2022-12-07T09:01:22;7.63;;;3.80;;
25758;SDS011;13604;52.496;13.456;2022-12-07T09:03:47;6.85;;;4.00;;
25758;SDS011;13604;52.496;13.456;2022-12-07T09:06:13;6.03;;;3.90;;
25758;SDS011;13604;52.496;13.456;2022-12-07T09:08:39;7.32;;;3.92;;
25758;SDS011;13604;52.496;13.456;2022-12-07T09:11:08;6.18;;;3.00;;
25758;SDS011;13604;52.496;13.456;2022-12-07T09:13:33;6.50;;;3.38;;
25758;SDS011;13604;52.496;13.456;2022-12-07T09:15:58;5.40;;;3.10;;
25758;SDS011;13604;52.496;13.456;2022-12-07T09:18:23;5.10;;;3.20;;
25758;SDS011;13604;52.496;13.456;2022-12-07T09:20:49;10.98;;;3.53;;
25758;SDS011;13604;52.496;13.456;2022-12-07T09:23:15;5.18;;;2.88;;
25758;SDS011;13604;52.496;13.456;2022-12-07T09:25:40;3.58;;;2.22;;
25758;SDS011;13604;52.496;13.456;2022-12-07T09:28:06;4.30;;;2.63;;
25758;SDS011;13604;52.496;13.456;2022-12-07T09:30:31;4.07;;;2.92;;
25758;SDS011;13604;52.496;13.456;2022-12-07T09:32:56;5.43;;;3.00;;
25758;SDS011;13604;52.496;13.456;2022-12-07T09:35:22;4.65;;;2.85;;
25758;SDS011;13604;52.496;13.456;2022-12-07T09:37:48;5.82;;;3.13;;
25758;SDS011;13604;52.496;13.456;2022-12-07T09:40:14;4.72;;;3.15;;
25758;SDS011;13604;52.496;13.456;2022-12-07T09:42:43;5.38;;;3.50;;
25758;SDS011;13604;52.496;13.456;2022-12-07T09:45:14;7.57;;;3.72;;
25758;SDS011;13604;52.496;13.456;2022-12-07T09:47:43;5.63;;;3.42;;
25758;SDS011;13604;52.496;13.456;2022-12-07T09:50:13;8.50;;;3.03;;
25758;SDS011;13604;52.496;13.456;2022-12-07T09:52:43;3.60;;;2.80;;
25758;SDS011;13604;52.496;13.456;2022-12-07T09:55:11;3.58;;;2.60;;
25758;SDS011;13604;52.496;13.456;2022-12-07T09:57:39;5.68;;;3.17;;
25758;SDS011;13604;52.496;13.456;2022-12-07T10:00:15;4.97;;;3.05;;
25758;SDS011;13604;52.496;13.456;2022-12-07T10:05:24;4.30;;;2.55;;
25758;SDS011;13604;52.496;13.456;2022-12-07T10:07:53;4.30;;;2.60;;
25758;SDS011;13604;52.496;13.456;2022-12-07T10:10:23;5.97;;;2.63;;
25758;SDS011;13604;52.496;13.456;2022-12-07T10:18:28;4.13;;;2.63;;
25758;SDS011;13604;52.496;13.456;2022-12-07T10:23:33;5.15;;;3.72;;
25758;SDS011;13604;52.496;13.456;2022-12-07T10:25:58;3.05;;;2.60;;
25758;SDS011;13604;52.496;13.456;2022-12-07T10:28:27;6.97;;;3.00;;
25758;SDS011;13604;52.496;13.456;2022-12-07T10:31:01;4.15;;;2.63;;
25758;SDS011;13604;52.496;13.456;2022-12-07T10:33:50;8.63;;;3.30;;
25758;SDS011;13604;52.496;13.456;2022-12-07T10:41:18;6.82;;;3.05;;
25758;SDS011;13604;52.496;13.456;2022-12-07T10:43:46;8.00;;;3.53;;
25758;SDS011;13604;52.496;13.456;2022-12-07T10:49:09;6.22;;;3.08;;
25758;SDS011;13604;52.496;13.456;2022-12-07T10:57:10;4.50;;;2.83;;
25758;SDS011;13604;52.496;13.456;2022-12-07T10:59:53;6.47;;;3.30;;
25758;SDS011;13604;52.496;13.456;2022-12-07T11:05:24;7.40;;;3.70;;
25758;SDS011;13604;52.496;13.456;2022-12-07T11:08:13;5.60;;;3.72;;
25758;SDS011;13604;52.496;13.456;2022-12-07T11:11:06;8.38;;;4.25;;
25758;SDS011;13604;52.496;13.456;2022-12-07T11:13:40;9.40;;;4.82;;
25758;SDS011;13604;52.496;13.456;2022-12-07T11:21:55;8.75;;;4.75;;
25758;SDS011;13604;52.496;13.456;2022-12-07T11:24:32;9.57;;;4.68;;
25758;SDS011;13604;52.496;13.456;2022-12-07T11:27:09;8.88;;;3.90;;
25758;SDS011;13604;52.496;13.456;2022-12-07T11:35:14;8.95;;;4.38;;
25758;SDS011;13604;52.496;13.456;2022-12-07T11:37:42;8.00;;;4.63;;
25758;SDS011;13604;52.496;13.456;2022-12-07T11:40:14;5.85;;;4.40;;
25758;SDS011;13604;52.496;13.456;2022-12-07T11:42:55;9.00;;;4.57;;
25758;SDS011;13604;52.496;13.456;2022-12-07T11:45:32;9.98;;;4.75;;
25758;SDS011;13604;52.496;13.456;2022-12-07T11:50:54;11.10;;;4.50;;
25758;SDS011;13604;52.496;13.456;2022-12-07T11:53:23;8.18;;;4.43;;
25758;SDS011;13604;52.496;13.456;2022-12-07T11:56:12;9.38;;;4.80;;
25758;SDS011;13604;52.496;13.456;2022-12-07T12:01:29;5.38;;;3.95;;
25758;SDS011;13604;52.496;13.456;2022-12-07T12:06:40;12.15;;;4.60;;
25758;SDS011;13604;52.496;13.456;2022-12-07T12:09:11;9.38;;;4.93;;
25758;SDS011;13604;52.496;13.456;2022-12-07T12:17:35;10.70;;;4.07;;
25758;SDS011;13604;52.496;13.456;2022-12-07T12:20:28;8.32;;;4.15;;
25758;SDS011;13604;52.496;13.456;2022-12-07T12:23:04;7.10;;;4.00;;
25758;SDS011;13604;52.496;13.456;2022-12-07T12:25:41;8.75;;;3.90;;
25758;SDS011;13604;52.496;13.456;2022-12-07T12:28:15;8.38;;;3.95;;
25758;SDS011;13604;52.496;13.456;2022-12-07T12:33:37;8.88;;;3.30;;
25758;SDS011;13604;52.496;13.456;2022-12-07T12:36:17;7.70;;;3.40;;
25758;SDS011;13604;52.496;13.456;2022-12-07T12:44:00;11.10;;;3.10;;
25758;SDS011;13604;52.496;13.456;2022-12-07T12:54:58;9.80;;;3.38;;
25758;SDS011;13604;52.496;13.456;2022-12-07T12:57:27;14.68;;;4.15;;
25758;SDS011;13604;52.496;13.456;2022-12-07T13:02:26;7.35;;;2.72;;
25758;SDS011;13604;52.496;13.456;2022-12-07T13:15:39;10.00;;;3.00;;
25758;SDS011;13604;52.496;13.456;2022-12-07T13:18:22;9.70;;;3.38;;
25758;SDS011;13604;52.496;13.456;2022-12-07T13:23:32;9.93;;;2.90;;
25758;SDS011;13604;52.496;13.456;2022-12-07T13:26:21;8.65;;;3.33;;
25758;SDS011;13604;52.496;13.456;2022-12-07T13:33:57;10.35;;;2.95;;
25758;SDS011;13604;52.496;13.456;2022-12-07T13:36:23;6.55;;;2.85;;
25758;SDS011;13604;52.496;13.456;2022-12-07T13:38:52;14.32;;;3.67;;
25758;SDS011;13604;52.496;13.456;2022-12-07T13:41:20;10.68;;;3.63;;
25758;SDS011;13604;52.496;13.456;2022-12-07T13:43:51;8.27;;;3.50;;
25758;SDS011;13604;52.496;13.456;2022-12-07T13:46:49;7.38;;;3.20;;
25758;SDS011;13604;52.496;13.456;2022-12-07T13:49:37;8.20;;;3.00;;
25758;SDS011;13604;52.496;13.456;2022-12-07T13:57:24;6.55;;;2.70;;
25758;SDS011;13604;52.496;13.456;2022-12-07T13:59:50;10.52;;;3.03;;
25758;SDS011;13604;52.496;13.456;2022-12-07T14:02:21;7.72;;;2.95;;
25758;SDS011;13604;52.496;13.456;2022-12-07T14:04:50;11.50;;;3.28;;
25758;SDS011;13604;52.496;13.456;2022-12-07T14:07:27;8.80;;;2.75;;
25758;SDS011;13604;52.496;13.456;2022-12-07T14:09:58;9.05;;;2.60;;
25758;SDS011;13604;52.496;13.456;2022-12-07T14:12:28;8.70;;;3.22;;
25758;SDS011;13604;52.496;13.456;2022-12-07T14:14:55;7.82;;;3.10;;
25758;SDS011;13604;52.496;13.456;2022-12-07T14:17:23;7.80;;;2.90;;
25758;SDS011;13604;52.496;13.456;2022-12-07T14:19:51;8.90;;;2.50;;
25758;SDS011;13604;52.496;13.456;2022-12-07T14:22:27;10.88;;;3.90;;
25758;SDS011;13604;52.496;13.456;2022-12-07T14:25:11;8.73;;;2.55;;
25758;SDS011;13604;52.496;13.456;2022-12-07T14:27:37;6.43;;;2.85;;
25758;SDS011;13604;52.496;13.456;2022-12-07T14:30:03;12.48;;;3.28;;
25758;SDS011;13604;52.496;13.456;2022-12-07T14:32:31;19.15;;;3.17;;
25758;SDS011;13604;52.496;13.456;2022-12-07T14:35:00;7.32;;;2.78;;
25758;SDS011;13604;52.496;13.456;2022-12-07T14:37:33;11.13;;;3.28;;
25758;SDS011;13604;52.496;13.456;2022-12-07T14:39:58;9.88;;;3.42;;
25758;SDS011;13604;52.496;13.456;2022-12-07T14:42:24;9.93;;;3.90;;
25758;SDS011;13604;52.496;13.456;2022-12-07T14:44:53;14.32;;;3.67;;
25758;SDS011;13604;52.496;13.456;2022-12-07T14:47:18;9.50;;;3.47;;
25758;SDS011;13604;52.496;13.456;2022-12-07T14:49:44;10.07;;;3.17;;
25758;SDS011;13604;52.496;13.456;2022-12-07T14:52:14;6.82;;;3.00;;
25758;SDS011;13604;52.496;13.456;2022-12-07T14:54:42;8.65;;;2.70;;
25758;SDS011;13604;52.496;13.456;2022-12-07T14:57:08;16.65;;;3.47;;
25758;SDS011;13604;52.496;13.456;2022-12-07T14:59:35;19.15;;;4.03;;
25758;SDS011;13604;52.496;13.456;2022-12-07T15:02:00;11.48;;;2.97;;
25758;SDS011;13604;52.496;13.456;2022-12-07T15:04:25;11.77;;;3.53;;
25758;SDS011;13604;52.496;13.456;2022-12-07T15:06:57;5.78;;;2.65;;
25758;SDS011;13604;52.496;13.456;2022-12-07T15:09:24;16.38;;;3.22;;
25758;SDS011;13604;52.496;13.456;2022-12-07T15:11:49;11.95;;;3.38;;
25758;SDS011;13604;52.496;13.456;2022-12-07T15:14:15;9.27;;;3.45;;
25758;SDS011;13604;52.496;13.456;2022-12-07T15:16:41;14.07;;;3.63;;
25758;SDS011;13604;52.496;13.456;2022-12-07T15:19:14;8.30;;;3.10;;
25758;SDS011;13604;52.496;13.456;2022-12-07T15:21:45;11.27;;;3.50;;
25758;SDS011;13604;52.496;13.456;2022-12-07T15:24:11;10.23;;;3.28;;
25758;SDS011;13604;52.496;13.456;2022-12-07T15:26:37;11.10;;;2.70;;
25758;SDS011;13604;52.496;13.456;2022-12-07T15:29:04;11.32;;;2.63;;
25758;SDS011;13604;52.496;13.456;2022-12-07T15:31:30;15.75;;;3.58;;
25758;SDS011;13604;52.496;13.456;2022-12-07T15:33:55;9.80;;;3.22;;
25758;SDS011;13604;52.496;13.456;2022-12-07T15:36:22;7.18;;;3.03;;
25758;SDS011;13604;52.496;13.456;2022-12-07T15:38:48;9.15;;;3.35;;
25758;SDS011;13604;52.496;13.456;2022-12-07T15:41:14;11.73;;;3.42;;
25758;SDS011;13604;52.496;13.456;2022-12-07T15:43:40;18.98;;;3.80;;
25758;SDS011;13604;52.496;13.456;2022-12-07T15:46:23;14.50;;;4.00;;
25758;SDS011;13604;52.496;13.456;2022-12-07T15:48:54;12.63;;;3.45;;
25758;SDS011;13604;52.496;13.456;2022-12-07T15:51:20;8.15;;;3.47;;
25758;SDS011;13604;52.496;13.456;2022-12-07T15:53:45;9.35;;;2.90;;
25758;SDS011;13604;52.496;13.456;2022-12-07T15:56:11;10.23;;;3.22;;
25758;SDS011;13604;52.496;13.456;2022-12-07T15:58:36;13.38;;;3.72;;
25758;SDS011;13604;52.496;13.456;2022-12-07T16:01:09;12.70;;;3.30;;
25758;SDS011;13604;52.496;13.456;2022-12-07T16:03:42;9.13;;;3.05;;
25758;SDS011;13604;52.496;13.456;2022-12-07T16:06:09;22.73;;;4.05;;
25758;SDS011;13604;52.496;13.456;2022-12-07T16:08:35;13.93;;;3.53;;
25758;SDS011;13604;52.496;13.456;2022-12-07T16:11:04;12.27;;;3.10;;
25758;SDS011;13604;52.496;13.456;2022-12-07T16:13:30;9.63;;;3.10;;
25758;SDS011;13604;52.496;13.456;2022-12-07T16:15:55;8.98;;;3.03;;
25758;SDS011;13604;52.496;13.456;2022-12-07T16:18:21;12.95;;;3.38;;
25758;SDS011;13604;52.496;13.456;2022-12-07T16:20:49;9.40;;;3.00;;
25758;SDS011;13604;52.496;13.456;2022-12-07T16:23:14;9.30;;;3.72;;
25758;SDS011;13604;52.496;13.456;2022-12-07T16:25:40;10.50;;;3.45;;
25758;SDS011;13604;52.496;13.456;2022-12-07T16:28:06;13.65;;;3.25;;
25758;SDS011;13604;52.496;13.456;2022-12-07T16:30:31;12.10;;;3.75;;
25758;SDS011;13604;52.496;13.456;2022-12-07T16:32:57;10.20;;;3.40;;